createdAt,value
2018-03-18T00:00:22.221Z,52.00
2018-03-18T00:02:49.751Z,52.70
2018-03-18T00:05:17.328Z,52.00
2018-03-18T00:07:44.855Z,51.30
2018-03-18T00:10:13.179Z,50.90
2018-03-18T00:12:40.712Z,50.90
2018-03-18T00:15:08.264Z,51.20
2018-03-18T00:17:35.812Z,51.60
2018-03-18T00:20:04.108Z,50.50
2018-03-18T00:22:32.424Z,50.90
2018-03-18T00:25:00.722Z,51.60
2018-03-18T00:27:29.039Z,52.20
2018-03-18T00:29:56.589Z,52.20
2018-03-18T00:32:24.136Z,51.60
2018-03-18T00:34:51.676Z,51.90
2018-03-18T00:37:19.987Z,50.90
2018-03-18T00:39:48.283Z,50.30
2018-03-18T00:42:16.628Z,50.40
2018-03-18T00:44:44.159Z,50.50
2018-03-18T00:47:12.492Z,50.60
2018-03-18T00:49:40.026Z,50.50
2018-03-18T00:52:07.576Z,51.20
2018-03-18T00:54:35.124Z,51.00
2018-03-18T00:57:03.415Z,50.70
2018-03-18T00:59:31.772Z,52.20
2018-03-18T01:01:59.318Z,52.20
2018-03-18T01:04:27.643Z,52.00
2018-03-18T01:06:55.176Z,52.00
2018-03-18T01:09:22.732Z,51.80
2018-03-18T01:11:50.263Z,53.00
2018-03-18T01:14:18.575Z,53.20
2018-03-18T01:16:46.872Z,52.70
2018-03-18T01:19:15.184Z,52.60
2018-03-18T01:21:43.476Z,53.20
2018-03-18T01:24:11.792Z,53.60
2018-03-18T01:26:39.318Z,53.50
2018-03-18T01:29:06.856Z,54.00
2018-03-18T01:31:35.172Z,54.30
2018-03-18T01:34:02.708Z,54.10
2018-03-18T01:36:30.256Z,54.10
2018-03-18T01:38:57.791Z,54.30
2018-03-18T01:41:25.339Z,53.90
2018-03-18T01:43:52.868Z,54.80
2018-03-18T01:46:21.188Z,55.10
2018-03-18T01:48:48.720Z,55.10
2018-03-18T01:51:16.292Z,55.80
2018-03-18T01:53:43.816Z,54.40
2018-03-18T01:56:12.111Z,55.50
2018-03-18T01:58:39.659Z,55.60
2018-03-18T02:01:07.241Z,56.40
2018-03-18T02:03:34.792Z,57.00
2018-03-18T02:06:03.088Z,56.90
2018-03-18T02:08:31.404Z,56.60
2018-03-18T02:10:59.699Z,57.20
2018-03-18T02:13:28.017Z,57.60
2018-03-18T02:15:55.548Z,57.60
2018-03-18T02:18:23.107Z,57.80
2018-03-18T02:20:50.646Z,57.60
2018-03-18T02:23:18.212Z,57.80
2018-03-18T02:25:45.743Z,58.30
2018-03-18T02:28:15.056Z,57.50
2018-03-18T02:30:43.372Z,58.30
2018-03-18T02:33:10.915Z,58.40
2018-03-18T02:35:38.467Z,58.10
2018-03-18T02:38:05.998Z,58.70
2018-03-18T02:40:33.545Z,59.30
2018-03-18T02:43:01.071Z,59.00
2018-03-18T02:45:28.612Z,58.60
2018-03-18T02:47:56.151Z,59.70
2018-03-18T02:50:24.472Z,59.80
2018-03-18T02:52:52.767Z,59.90
2018-03-18T02:55:21.060Z,59.80
2018-03-18T02:57:48.608Z,59.80
2018-03-18T03:00:16.142Z,59.80
2018-03-18T03:02:44.464Z,60.00
2018-03-18T03:05:11.995Z,60.00
2018-03-18T03:07:39.548Z,59.90
2018-03-18T03:10:07.085Z,59.70
2018-03-18T03:12:34.631Z,59.60
2018-03-18T03:15:02.158Z,60.60
2018-03-18T03:17:29.708Z,60.90
2018-03-18T03:19:57.241Z,61.30
2018-03-18T03:22:24.788Z,60.50
2018-03-18T03:27:27.004Z,61.30
2018-03-18T03:29:55.305Z,61.80
2018-03-18T03:32:23.625Z,62.20
2018-03-18T03:34:51.160Z,62.30
2018-03-18T03:37:18.684Z,62.50
2018-03-18T03:39:47.000Z,61.70
2018-03-18T03:42:14.535Z,61.70
2018-03-18T03:44:42.095Z,62.40
2018-03-18T03:47:09.623Z,62.60
2018-03-18T03:49:37.172Z,62.20
2018-03-18T03:52:04.703Z,61.80
2018-03-18T03:54:33.027Z,62.70
2018-03-18T03:57:00.574Z,62.70
2018-03-18T03:59:28.124Z,63.20
2018-03-18T04:01:55.656Z,62.40
2018-03-18T04:04:23.208Z,63.00
2018-03-18T04:06:50.735Z,63.30
2018-03-18T04:09:18.320Z,63.20
2018-03-18T04:11:45.856Z,63.60
2018-03-18T04:14:13.391Z,63.20
2018-03-18T04:16:40.939Z,63.20
2018-03-18T04:19:08.462Z,63.90
2018-03-18T04:21:36.015Z,62.80
2018-03-18T04:24:03.551Z,62.90
2018-03-18T04:26:31.865Z,62.60
2018-03-18T04:29:00.224Z,63.30
2018-03-18T04:31:27.770Z,63.20
2018-03-18T04:33:55.341Z,63.30
2018-03-18T04:36:22.879Z,63.00
2018-03-18T04:38:50.422Z,63.20
2018-03-18T04:41:18.767Z,63.00
2018-03-18T04:43:46.294Z,63.70
2018-03-18T04:46:13.856Z,63.00
2018-03-18T04:48:41.399Z,63.70
2018-03-18T04:51:08.943Z,63.90
2018-03-18T04:53:36.487Z,63.90
2018-03-18T04:56:04.015Z,63.80
2018-03-18T04:58:31.564Z,64.30
2018-03-18T05:00:59.097Z,64.40
2018-03-18T05:03:26.667Z,64.60
2018-03-18T05:05:54.191Z,64.10
2018-03-18T05:08:22.487Z,64.10
2018-03-18T05:10:50.822Z,64.60
2018-03-18T05:13:18.360Z,64.60
2018-03-18T05:15:46.902Z,64.80
2018-03-18T05:18:14.440Z,64.80
2018-03-18T05:20:41.983Z,63.40
2018-03-18T05:23:09.508Z,64.00
2018-03-18T05:25:37.055Z,64.60
2018-03-18T05:28:04.593Z,64.10
2018-03-18T05:30:32.153Z,63.80
2018-03-18T05:32:59.695Z,63.90
2018-03-18T05:35:27.247Z,63.40
2018-03-18T05:37:54.779Z,63.40
2018-03-18T05:40:22.308Z,63.40
2018-03-18T05:42:49.859Z,64.10
2018-03-18T05:45:17.396Z,63.50
2018-03-18T05:47:44.943Z,64.00
2018-03-18T05:50:12.475Z,63.50
2018-03-18T05:52:40.036Z,62.30
2018-03-18T05:55:07.576Z,62.00
2018-03-18T05:57:35.122Z,62.30
2018-03-18T06:00:02.651Z,63.20
2018-03-18T06:02:30.188Z,63.10
2018-03-18T06:04:57.727Z,62.70
2018-03-18T06:07:25.256Z,62.60
2018-03-18T06:09:52.804Z,61.30
2018-03-18T06:12:20.340Z,60.70
2018-03-18T06:14:47.904Z,58.50
2018-03-18T06:17:15.441Z,56.10
2018-03-18T06:19:43.764Z,52.40
2018-03-18T06:22:11.292Z,52.40
2018-03-18T06:24:38.845Z,52.00
2018-03-18T06:27:06.371Z,50.40
2018-03-18T06:29:33.928Z,50.00
2018-03-18T06:32:01.468Z,50.10
2018-03-18T06:34:28.999Z,49.30
2018-03-18T06:36:56.549Z,49.80
2018-03-18T06:39:24.852Z,49.90
2018-03-18T06:41:53.173Z,49.40
2018-03-18T06:44:20.704Z,49.40
2018-03-18T06:46:48.320Z,49.80
2018-03-18T06:49:16.620Z,49.60
2018-03-18T06:51:44.183Z,49.60
2018-03-18T06:54:11.721Z,48.80
2018-03-18T06:56:39.271Z,48.70
2018-03-18T06:59:06.815Z,48.50
2018-03-18T07:01:34.380Z,48.90
2018-03-18T07:04:02.692Z,47.70
2018-03-18T07:06:30.220Z,47.70
2018-03-18T07:08:57.777Z,46.90
2018-03-18T07:11:25.309Z,46.20
2018-03-18T07:13:52.865Z,47.40
2018-03-18T07:16:20.399Z,47.80
2018-03-18T07:18:48.746Z,47.90
2018-03-18T07:21:16.304Z,47.80
2018-03-18T07:23:44.615Z,47.90
2018-03-18T07:26:12.945Z,46.10
2018-03-18T07:28:40.479Z,46.10
2018-03-18T07:31:08.027Z,46.50
2018-03-18T07:33:35.565Z,46.60
2018-03-18T07:36:03.121Z,46.20
2018-03-18T07:38:30.663Z,45.80
2018-03-18T07:40:58.238Z,44.40
2018-03-18T07:43:26.552Z,44.70
2018-03-18T07:45:54.870Z,45.40
2018-03-18T07:48:22.408Z,45.30
2018-03-18T07:50:49.960Z,44.10
2018-03-18T07:53:17.545Z,41.90
2018-03-18T07:55:45.116Z,42.60
2018-03-18T07:58:12.652Z,41.70
2018-03-18T08:00:40.284Z,41.90
2018-03-18T08:03:07.832Z,41.90
2018-03-18T08:05:35.367Z,42.10
2018-03-18T08:08:02.921Z,42.20
2018-03-18T08:10:30.456Z,41.20
2018-03-18T08:12:58.008Z,40.60
2018-03-18T08:15:25.560Z,39.50
2018-03-18T08:17:53.155Z,38.20
2018-03-18T08:20:20.688Z,38.10
2018-03-18T08:22:48.222Z,38.00
2018-03-18T08:25:15.771Z,37.70
2018-03-18T08:27:43.300Z,37.80
2018-03-18T08:30:10.858Z,37.50
2018-03-18T08:32:38.404Z,37.20
2018-03-18T08:35:06.412Z,37.90
2018-03-18T08:37:33.975Z,36.60
2018-03-18T08:40:01.564Z,35.10
2018-03-18T08:42:29.932Z,35.90
2018-03-18T08:44:58.273Z,35.40
2018-03-18T08:47:25.813Z,35.40
2018-03-18T08:49:53.371Z,35.20
2018-03-18T08:52:20.967Z,35.10
2018-03-18T08:54:48.476Z,35.70
2018-03-18T08:57:16.041Z,35.30
2018-03-18T08:59:44.361Z,34.00
2018-03-18T09:02:11.925Z,33.90
2018-03-18T09:04:39.459Z,34.10
2018-03-18T09:07:07.048Z,34.40
2018-03-18T09:09:34.605Z,34.30
2018-03-18T09:12:02.927Z,34.10
2018-03-18T09:14:30.477Z,34.10
2018-03-18T09:16:58.801Z,32.60
2018-03-18T09:19:26.345Z,32.50
2018-03-18T09:21:53.913Z,32.50
2018-03-18T09:24:21.481Z,32.60
2018-03-18T09:26:49.048Z,32.50
2018-03-18T09:29:16.604Z,32.70
2018-03-18T09:31:44.933Z,33.20
2018-03-18T09:34:12.478Z,33.20
2018-03-18T09:36:40.021Z,32.30
2018-03-18T09:39:07.690Z,33.00
2018-03-18T09:41:35.231Z,31.90
2018-03-18T09:44:02.785Z,31.00
2018-03-18T09:46:30.316Z,31.20
2018-03-18T09:48:57.869Z,30.90
2018-03-18T09:51:26.166Z,30.10
2018-03-18T09:53:53.824Z,30.10
2018-03-18T09:56:21.395Z,30.60
2018-03-18T09:58:48.962Z,30.90
2018-03-18T10:01:16.509Z,30.50
2018-03-18T10:03:44.208Z,30.80
2018-03-18T10:06:11.786Z,30.30
2018-03-18T10:08:39.344Z,29.50
2018-03-18T10:11:06.882Z,29.00
2018-03-18T10:13:34.448Z,29.30
2018-03-18T10:16:01.975Z,29.10
2018-03-18T10:18:30.289Z,28.60
2018-03-18T10:20:58.602Z,28.10
2018-03-18T10:23:26.144Z,28.10
2018-03-18T10:25:53.687Z,29.10
2018-03-18T10:28:21.216Z,28.60
2018-03-18T10:30:48.763Z,28.70
2018-03-18T10:33:16.299Z,29.50
2018-03-18T10:35:44.611Z,28.60
2018-03-18T10:38:12.148Z,28.60
2018-03-18T10:40:39.695Z,28.10
2018-03-18T10:43:07.230Z,28.30
2018-03-18T10:45:34.784Z,27.90
2018-03-18T10:48:02.334Z,28.00
2018-03-18T10:50:29.884Z,28.40
2018-03-18T10:52:57.434Z,28.10
2018-03-18T10:55:24.987Z,27.70
2018-03-18T10:57:52.534Z,28.20
2018-03-18T11:00:21.000Z,27.70
2018-03-18T11:02:49.904Z,27.50
2018-03-18T11:05:17.452Z,26.60
2018-03-18T11:07:45.757Z,27.00
2018-03-18T11:10:14.085Z,26.80
2018-03-18T11:12:41.628Z,26.80
2018-03-18T11:15:09.239Z,27.90
2018-03-18T11:17:36.741Z,27.50
2018-03-18T11:20:04.296Z,27.80
2018-03-18T11:22:32.602Z,26.80
2018-03-18T11:25:00.924Z,26.60
2018-03-18T11:27:28.464Z,26.60
2018-03-18T11:29:56.008Z,26.60
2018-03-18T11:32:23.569Z,26.40
2018-03-18T11:34:51.117Z,26.50
2018-03-18T11:37:18.673Z,26.20
2018-03-18T11:39:47.144Z,26.10
2018-03-18T11:42:14.713Z,26.40
2018-03-18T11:44:43.022Z,26.60
2018-03-18T11:47:11.340Z,25.70
2018-03-18T11:49:38.883Z,25.70
2018-03-18T11:52:06.442Z,25.50
2018-03-18T11:54:33.998Z,25.40
2018-03-18T11:57:01.569Z,25.90
2018-03-18T11:59:29.133Z,26.40
2018-03-18T12:01:56.702Z,25.10
2018-03-18T12:04:25.019Z,25.40
2018-03-18T12:06:52.580Z,25.40
2018-03-18T12:09:20.880Z,24.50
2018-03-18T12:11:49.193Z,24.50
2018-03-18T12:14:17.018Z,24.50
2018-03-18T12:16:44.593Z,25.20
2018-03-18T12:19:12.128Z,24.90
2018-03-18T12:21:39.704Z,24.80
2018-03-18T12:24:07.238Z,25.20
2018-03-18T12:26:34.779Z,25.20
2018-03-18T12:29:02.342Z,25.80
2018-03-18T12:31:29.887Z,26.20
2018-03-18T12:33:57.442Z,26.00
2018-03-18T12:36:24.979Z,27.50
2018-03-18T12:38:52.529Z,26.50
2018-03-18T12:41:20.076Z,26.00
2018-03-18T12:43:47.633Z,24.70
2018-03-18T12:46:15.169Z,24.80
2018-03-18T12:48:42.729Z,26.10
2018-03-18T12:51:10.273Z,26.50
2018-03-18T12:53:37.834Z,27.00
2018-03-18T12:56:05.372Z,26.90
2018-03-18T12:58:32.927Z,25.70
2018-03-18T13:01:00.468Z,25.30
2018-03-18T13:03:28.045Z,25.60
2018-03-18T13:05:55.620Z,25.40
2018-03-18T13:08:23.152Z,25.30
2018-03-18T13:10:50.693Z,24.90
2018-03-18T13:13:18.254Z,26.30
2018-03-18T13:15:45.794Z,25.70
2018-03-18T13:18:13.352Z,26.40
2018-03-18T13:20:40.898Z,24.70
2018-03-18T13:23:08.446Z,24.60
2018-03-18T13:25:36.002Z,24.40
2018-03-18T13:28:03.547Z,24.80
2018-03-18T13:30:31.109Z,25.30
2018-03-18T13:32:58.646Z,24.10
2018-03-18T13:35:26.200Z,24.70
2018-03-18T13:37:54.494Z,24.70
2018-03-18T13:40:22.810Z,24.40
2018-03-18T13:42:50.345Z,24.40
2018-03-18T13:45:17.907Z,24.20
2018-03-18T13:47:45.439Z,24.70
2018-03-18T13:50:12.994Z,25.10
2018-03-18T13:52:40.539Z,24.40
2018-03-18T13:55:08.868Z,24.80
2018-03-18T13:57:36.418Z,24.80
2018-03-18T14:00:04.794Z,25.20
2018-03-18T14:02:32.320Z,25.20
2018-03-18T14:05:00.632Z,25.20
2018-03-18T14:07:28.187Z,25.20
2018-03-18T14:09:56.516Z,24.70
2018-03-18T14:12:24.062Z,24.70
2018-03-18T14:14:51.606Z,24.30
2018-03-18T14:17:19.158Z,24.70
2018-03-18T14:19:47.465Z,25.50
2018-03-18T14:22:15.043Z,25.50
2018-03-18T14:24:42.590Z,25.20
2018-03-18T14:27:10.157Z,25.30
2018-03-18T14:29:37.699Z,24.90
2018-03-18T14:32:05.252Z,24.40
2018-03-18T14:34:32.803Z,24.30
2018-03-18T14:37:00.369Z,24.20
2018-03-18T14:39:27.913Z,25.80
2018-03-18T14:41:55.474Z,25.20
2018-03-18T14:44:23.013Z,24.90
2018-03-18T14:46:51.329Z,25.60
2018-03-18T14:49:18.967Z,25.60
2018-03-18T14:51:46.527Z,25.10
2018-03-18T14:54:14.062Z,25.20
2018-03-18T14:56:42.390Z,25.00
2018-03-18T14:59:09.925Z,25.00
2018-03-18T15:01:37.477Z,24.60
2018-03-18T15:04:05.008Z,24.90
2018-03-18T15:06:32.575Z,25.30
2018-03-18T15:09:00.134Z,24.60
2018-03-18T15:11:27.692Z,24.70
2018-03-18T15:13:56.000Z,25.10
2018-03-18T15:16:24.317Z,25.10
2018-03-18T15:18:51.861Z,25.10
2018-03-18T15:21:19.409Z,25.20
2018-03-18T15:23:47.740Z,25.80
2018-03-18T15:26:16.042Z,25.10
2018-03-18T15:28:43.597Z,25.00
2018-03-18T15:31:11.899Z,25.50
2018-03-18T15:33:39.452Z,25.50
2018-03-18T15:36:06.993Z,25.70
2018-03-18T15:38:34.544Z,25.40
2018-03-18T15:41:02.915Z,25.30
2018-03-18T15:43:30.448Z,25.20
2018-03-18T15:45:58.762Z,25.50
2018-03-18T15:48:27.080Z,25.50
2018-03-18T15:50:54.650Z,25.50
2018-03-18T15:53:22.187Z,25.50
2018-03-18T15:55:50.493Z,26.30
2018-03-18T15:58:19.021Z,26.70
2018-03-18T16:00:46.556Z,26.70
2018-03-18T16:03:14.123Z,25.90
2018-03-18T16:05:41.673Z,25.90
2018-03-18T16:08:09.228Z,26.20
2018-03-18T16:10:36.770Z,26.00
2018-03-18T16:13:04.328Z,26.70
2018-03-18T16:15:32.635Z,26.70
2018-03-18T16:18:01.239Z,27.00
2018-03-18T16:20:28.772Z,27.00
2018-03-18T16:22:56.324Z,26.70
2018-03-18T16:25:23.864Z,26.90
2018-03-18T16:27:51.416Z,27.20
2018-03-18T16:30:31.181Z,27.60
2018-03-18T16:32:58.764Z,26.60
2018-03-18T16:35:26.314Z,27.00
2018-03-18T16:37:53.865Z,27.30
2018-03-18T16:40:22.190Z,27.50
2018-03-18T16:42:50.500Z,27.20
2018-03-18T16:45:18.827Z,27.50
2018-03-18T16:47:46.379Z,27.50
2018-03-18T16:50:13.945Z,27.70
2018-03-18T16:52:41.526Z,27.30
2018-03-18T16:55:09.088Z,27.50
2018-03-18T16:57:37.405Z,27.60
2018-03-18T17:00:05.736Z,27.20
2018-03-18T17:02:33.278Z,27.20
2018-03-18T17:05:00.825Z,27.40
2018-03-18T17:07:28.365Z,27.80
2018-03-18T17:09:56.680Z,28.00
2018-03-18T17:12:24.251Z,28.00
2018-03-18T17:14:52.573Z,28.50
2018-03-18T17:17:20.118Z,28.50
2018-03-18T17:19:47.701Z,28.80
2018-03-18T17:22:15.231Z,29.40
2018-03-18T17:24:42.792Z,29.10
2018-03-18T17:27:11.105Z,29.40
2018-03-18T17:29:39.433Z,29.20
2018-03-18T17:32:06.968Z,29.20
2018-03-18T17:34:34.528Z,29.40
2018-03-18T17:37:02.127Z,29.60
2018-03-18T17:39:29.658Z,29.60
2018-03-18T17:41:57.216Z,29.80
2018-03-18T17:44:36.874Z,30.00
2018-03-18T17:47:16.350Z,29.60
2018-03-18T17:49:55.707Z,30.00
2018-03-18T17:52:34.860Z,30.00
2018-03-18T17:55:10.085Z,29.90
2018-03-18T17:57:37.655Z,29.90
2018-03-18T18:00:05.193Z,30.00
2018-03-18T18:02:32.797Z,29.80
2018-03-18T18:05:00.344Z,30.00
2018-03-18T18:07:27.909Z,30.40
2018-03-18T18:09:55.444Z,30.80
2018-03-18T18:12:23.011Z,30.70
2018-03-18T18:14:50.555Z,30.30
2018-03-18T18:17:18.126Z,31.40
2018-03-18T18:19:45.669Z,31.10
2018-03-18T18:22:13.224Z,31.50
2018-03-18T18:24:40.766Z,31.80
2018-03-18T18:27:09.093Z,32.00
2018-03-18T18:29:36.636Z,32.00
2018-03-18T18:32:04.205Z,31.90
2018-03-18T18:34:31.747Z,31.80
2018-03-18T18:36:59.301Z,31.90
2018-03-18T18:39:27.608Z,32.00
2018-03-18T18:41:55.924Z,32.20
2018-03-18T18:44:23.462Z,32.20
2018-03-18T18:46:51.045Z,32.20
2018-03-18T18:49:18.601Z,31.50
2018-03-18T18:51:46.190Z,30.40
2018-03-18T18:54:13.757Z,33.70
2018-03-18T18:56:41.297Z,31.90
2018-03-18T18:59:09.661Z,32.60
2018-03-18T19:01:37.216Z,32.60
2018-03-18T19:04:05.546Z,32.20
2018-03-18T19:06:33.089Z,32.20
2018-03-18T19:09:01.436Z,32.60
2018-03-18T19:11:28.979Z,32.60
2018-03-18T19:13:56.589Z,33.10
2018-03-18T19:16:24.898Z,33.40
2018-03-18T19:18:53.225Z,34.10
2018-03-18T19:21:20.790Z,34.10
2018-03-18T19:23:48.349Z,33.90
2018-03-18T19:26:15.909Z,34.10
2018-03-18T19:28:43.469Z,34.30
2018-03-18T19:31:11.786Z,35.30
2018-03-18T19:33:39.369Z,35.20
2018-03-18T19:36:07.672Z,35.40
2018-03-18T19:38:36.009Z,34.80
2018-03-18T19:41:03.581Z,34.70
2018-03-18T19:43:31.343Z,35.00
2018-03-18T19:45:58.941Z,35.30
2018-03-18T19:48:26.601Z,34.80
2018-03-18T19:50:54.140Z,35.20
2018-03-18T19:53:21.761Z,35.60
2018-03-18T19:55:49.300Z,35.70
2018-03-18T19:58:16.873Z,36.10
2018-03-18T20:00:44.445Z,35.80
2018-03-18T20:03:20.077Z,35.50
2018-03-18T20:05:49.591Z,35.40
2018-03-18T20:08:20.963Z,35.70
2018-03-18T20:10:48.985Z,35.70
2018-03-18T20:13:16.525Z,35.90
2018-03-18T20:15:44.083Z,36.20
2018-03-18T20:18:11.793Z,36.50
2018-03-18T20:20:39.352Z,36.60
2018-03-18T20:23:11.900Z,36.50
2018-03-18T20:25:40.167Z,36.70
2018-03-18T20:28:07.771Z,37.10
2018-03-18T20:30:36.166Z,37.20
2018-03-18T20:33:03.715Z,37.60
2018-03-18T20:35:31.292Z,37.70
2018-03-18T20:37:59.300Z,38.00
2018-03-18T20:40:26.917Z,38.00
2018-03-18T20:42:54.490Z,38.20
2018-03-18T20:45:22.816Z,38.30
2018-03-18T20:47:50.361Z,38.20
2018-03-18T20:50:17.918Z,38.00
2018-03-18T20:52:45.467Z,38.10
2018-03-18T20:55:13.062Z,38.20
2018-03-18T20:57:40.596Z,38.40
2018-03-18T21:00:08.144Z,38.60
2018-03-18T21:02:35.704Z,38.50
2018-03-18T21:05:03.277Z,38.50
2018-03-18T21:07:38.380Z,39.00
2018-03-18T21:10:06.165Z,38.90
2018-03-18T21:12:33.700Z,39.20
2018-03-18T21:15:01.304Z,39.20
2018-03-18T21:17:28.941Z,39.70
2018-03-18T21:19:56.540Z,39.90
2018-03-18T21:22:24.127Z,40.20
2018-03-18T21:24:51.685Z,40.70
2018-03-18T21:27:20.022Z,41.00
2018-03-18T21:29:47.583Z,40.90
2018-03-18T21:32:15.255Z,40.90
2018-03-18T21:34:42.829Z,41.50
2018-03-18T21:37:10.681Z,41.40
2018-03-18T21:39:38.262Z,41.80
2018-03-18T21:42:06.650Z,41.90
2018-03-18T21:44:34.259Z,41.90
2018-03-18T21:47:02.582Z,42.80
2018-03-18T21:49:30.158Z,42.60
2018-03-18T21:51:57.762Z,42.90
2018-03-18T21:54:26.074Z,42.80
2018-03-18T21:56:53.634Z,42.80
2018-03-18T21:59:21.946Z,42.80
2018-03-18T22:01:50.266Z,43.00
2018-03-18T22:04:17.840Z,42.90
2018-03-18T22:06:45.403Z,43.00
2018-03-18T22:09:13.713Z,43.50
2018-03-18T22:11:42.041Z,44.10
2018-03-18T22:14:09.585Z,44.10
2018-03-18T22:16:37.170Z,44.40
2018-03-18T22:19:04.704Z,44.20
2018-03-18T22:21:32.261Z,44.70
2018-03-18T22:24:00.569Z,44.80
2018-03-18T22:26:28.125Z,44.70
2018-03-18T22:28:55.704Z,45.40
2018-03-18T22:31:23.264Z,46.50
2018-03-18T22:33:50.811Z,46.70
2018-03-18T22:36:18.361Z,47.20
2018-03-18T22:38:45.920Z,47.70
2018-03-18T22:41:13.472Z,47.30
2018-03-18T22:43:41.032Z,48.10
2018-03-18T22:46:09.341Z,50.90
2018-03-18T22:48:36.920Z,50.80
2018-03-18T22:51:04.469Z,51.60
2018-03-18T22:53:32.026Z,51.90
2018-03-18T22:55:59.573Z,52.50
2018-03-18T22:58:27.905Z,52.70
2018-03-18T23:00:55.437Z,52.70
2018-03-18T23:03:23.001Z,53.20
2018-03-18T23:05:50.553Z,54.30
2018-03-18T23:08:18.125Z,54.30
2018-03-18T23:10:45.669Z,54.50
2018-03-18T23:13:13.286Z,54.90
2018-03-18T23:15:41.605Z,56.40
2018-03-18T23:18:09.169Z,56.40
2018-03-18T23:20:36.711Z,57.40
2018-03-18T23:23:04.278Z,58.40
2018-03-18T23:25:31.825Z,59.30
2018-03-18T23:27:59.442Z,60.40
2018-03-18T23:30:26.990Z,62.70
2018-03-18T23:32:54.549Z,63.40
2018-03-18T23:35:22.094Z,63.60
2018-03-18T23:37:49.656Z,63.20
2018-03-18T23:40:17.973Z,64.20
2018-03-18T23:42:46.312Z,63.50
2018-03-18T23:45:13.862Z,63.60
2018-03-18T23:47:42.205Z,62.90
2018-03-18T23:50:09.749Z,62.90
2018-03-18T23:52:38.060Z,63.10
2018-03-18T23:55:05.629Z,63.00
2018-03-18T23:57:33.962Z,64.10
